createdAt,value
2022-08-07T00:00:46.309Z,0.00
2022-08-07T00:02:37.155Z,0.00
2022-08-07T00:02:46.332Z,0.00
2022-08-07T00:03:47.430Z,0.00
2022-08-07T00:04:45.475Z,0.00
2022-08-07T00:05:45.276Z,0.00
2022-08-07T00:06:51.929Z,0.00
2022-08-07T00:07:46.253Z,0.00
2022-08-07T00:08:45.243Z,0.00
2022-08-07T00:10:04.700Z,0.00
2022-08-07T00:10:48.095Z,0.00
2022-08-07T00:11:54.476Z,0.00
2022-08-07T00:12:59.708Z,0.00
2022-08-07T00:13:46.206Z,0.00
2022-08-07T00:14:45.195Z,0.00
2022-08-07T00:15:46.774Z,0.00
2022-08-07T00:16:46.185Z,0.00
2022-08-07T00:17:45.171Z,0.00
2022-08-07T00:18:45.170Z,0.00
2022-08-07T00:20:02.619Z,0.00
2022-08-07T00:20:46.149Z,0.00
2022-08-07T00:21:55.547Z,0.00
2022-08-07T00:22:51.545Z,0.00
2022-08-07T00:23:46.133Z,0.00
2022-08-07T00:24:45.121Z,0.00
2022-08-07T00:25:45.828Z,0.00
2022-08-07T00:26:58.927Z,0.00
2022-08-07T00:27:52.136Z,0.00
2022-08-07T00:28:56.619Z,0.00
2022-08-07T00:29:46.079Z,0.00
2022-08-07T00:30:45.089Z,0.00
2022-08-07T00:32:45.549Z,0.00
2022-08-07T00:33:47.620Z,0.00
2022-08-07T00:34:45.534Z,0.00
2022-08-07T00:35:49.693Z,0.00
2022-08-07T00:36:46.613Z,0.00
2022-08-07T00:37:47.973Z,0.00
2022-08-07T00:38:46.608Z,0.00
2022-08-07T00:39:46.601Z,0.00
2022-08-07T00:40:47.587Z,0.00
2022-08-07T00:41:53.819Z,0.00
2022-08-07T00:42:47.570Z,0.00
2022-08-07T00:44:01.309Z,0.00
2022-08-07T00:44:47.547Z,0.00
2022-08-07T00:45:46.723Z,0.00
2022-08-07T00:46:46.533Z,0.00
2022-08-07T00:48:08.866Z,0.00
2022-08-07T00:48:49.995Z,0.00
2022-08-07T00:50:19.825Z,0.00
2022-08-07T00:50:51.537Z,0.00
2022-08-07T00:51:57.538Z,0.00
2022-08-07T00:52:47.707Z,0.00
2022-08-07T00:53:50.640Z,0.00
2022-08-07T00:54:47.492Z,0.00
2022-08-07T00:56:03.301Z,0.00
2022-08-07T00:56:49.797Z,0.00
2022-08-07T00:57:55.764Z,0.00
2022-08-07T00:58:49.859Z,0.00
2022-08-07T00:59:47.426Z,0.00
2022-08-07T01:00:53.923Z,0.00
2022-08-07T01:01:48.488Z,0.00
2022-08-07T01:02:46.403Z,0.00
2022-08-07T01:03:55.928Z,0.00
2022-08-07T01:04:47.391Z,0.00
2022-08-07T01:05:51.630Z,0.00
2022-08-07T01:06:47.373Z,0.00
2022-08-07T01:07:46.366Z,0.00
2022-08-07T01:08:53.775Z,0.00
2022-08-07T01:10:05.988Z,0.00
2022-08-07T01:10:47.648Z,0.00
2022-08-07T01:12:27.536Z,0.00
2022-08-07T01:12:54.078Z,0.00
2022-08-07T01:13:55.916Z,0.00
2022-08-07T01:14:47.303Z,0.00
2022-08-07T01:16:00.781Z,0.00
2022-08-07T01:16:48.105Z,0.00
2022-08-07T01:17:46.302Z,0.00
2022-08-07T01:18:46.279Z,0.00
2022-08-07T01:19:54.390Z,0.00
2022-08-07T01:20:57.219Z,0.00
2022-08-07T01:21:47.256Z,0.00
2022-08-07T01:22:47.001Z,0.00
2022-08-07T01:23:47.231Z,0.00
2022-08-07T01:24:47.484Z,0.00
2022-08-07T01:25:55.222Z,0.00
2022-08-07T01:26:47.905Z,0.00
2022-08-07T01:27:50.040Z,0.00
2022-08-07T01:28:48.360Z,0.00
2022-08-07T01:29:46.188Z,0.00
2022-08-07T01:30:47.031Z,0.00
2022-08-07T01:31:48.359Z,0.00
2022-08-07T01:32:46.171Z,0.00
2022-08-07T01:33:56.068Z,0.00
2022-08-07T01:34:49.147Z,0.00
2022-08-07T01:35:53.239Z,0.00
2022-08-07T01:36:52.735Z,0.00
2022-08-07T01:37:47.128Z,0.00
2022-08-07T01:38:46.112Z,0.00
2022-08-07T01:39:46.876Z,0.00
2022-08-07T01:40:46.094Z,0.00
2022-08-07T01:42:07.623Z,0.00
2022-08-07T01:42:57.524Z,0.00
2022-08-07T01:43:47.076Z,0.00
2022-08-07T01:44:47.867Z,0.00
2022-08-07T01:45:46.560Z,0.00
2022-08-07T01:46:46.047Z,0.00
2022-08-07T01:48:20.069Z,0.00
2022-08-07T01:48:47.599Z,0.00
2022-08-07T01:49:46.029Z,0.00
2022-08-07T01:50:46.022Z,0.00
2022-08-07T01:52:02.301Z,0.00
2022-08-07T01:52:49.385Z,0.00
2022-08-07T01:54:09.428Z,0.00
2022-08-07T01:54:46.987Z,0.00
2022-08-07T01:55:45.983Z,0.00
2022-08-07T01:56:49.362Z,0.00
2022-08-07T01:58:01.259Z,0.00
2022-08-07T01:58:46.950Z,0.00
2022-08-07T01:59:45.950Z,0.00
2022-08-07T02:00:49.994Z,0.00
2022-08-07T02:01:59.646Z,0.00
2022-08-07T02:03:19.177Z,0.00
2022-08-07T02:03:50.143Z,0.00
2022-08-07T02:04:52.584Z,0.00
2022-08-07T02:05:59.398Z,0.00
2022-08-07T02:06:46.882Z,0.00
2022-08-07T02:07:50.463Z,0.00
2022-08-07T02:08:46.863Z,0.00
2022-08-07T02:09:52.796Z,0.00
2022-08-07T02:10:48.768Z,0.00
2022-08-07T02:12:04.032Z,0.00
2022-08-07T02:12:50.073Z,0.00
2022-08-07T02:13:57.512Z,0.00
2022-08-07T02:14:46.815Z,0.00
2022-08-07T02:15:45.806Z,0.00
2022-08-07T02:16:45.802Z,0.00
2022-08-07T02:17:49.576Z,0.00
2022-08-07T02:18:47.252Z,0.00
2022-08-07T02:20:05.846Z,0.00
2022-08-07T02:20:48.706Z,0.00
2022-08-07T02:21:56.224Z,0.00
2022-08-07T02:22:46.748Z,0.00
2022-08-07T02:23:46.744Z,0.00
2022-08-07T02:24:45.748Z,0.00
2022-08-07T02:26:31.973Z,0.00
2022-08-07T02:26:46.716Z,0.00
2022-08-07T02:27:51.910Z,0.00
2022-08-07T02:28:46.700Z,0.00
2022-08-07T02:29:50.921Z,0.00
2022-08-07T02:30:46.676Z,0.00
2022-08-07T02:31:45.679Z,0.00
2022-08-07T02:33:00.581Z,0.00
2022-08-07T02:34:03.295Z,0.00
2022-08-07T02:34:48.971Z,0.00
2022-08-07T02:36:30.727Z,0.00
2022-08-07T02:36:46.628Z,0.00
2022-08-07T02:37:45.626Z,0.00
2022-08-07T02:38:50.868Z,0.00
2022-08-07T02:40:02.526Z,0.00
2022-08-07T02:40:46.785Z,0.00
2022-08-07T02:41:50.499Z,0.00
2022-08-07T02:42:46.577Z,0.00
2022-08-07T02:43:48.935Z,0.00
2022-08-07T02:44:45.775Z,0.00
2022-08-07T02:46:00.593Z,0.00
2022-08-07T02:46:52.506Z,0.00
2022-08-07T02:47:49.139Z,0.00
2022-08-07T02:48:47.055Z,0.00
2022-08-07T02:49:57.993Z,0.00
2022-08-07T02:50:46.523Z,0.00
2022-08-07T02:51:51.835Z,0.00
2022-08-07T02:52:48.702Z,0.00
2022-08-07T02:53:45.498Z,0.00
2022-08-07T02:54:45.484Z,0.00
2022-08-07T02:56:02.662Z,0.00
2022-08-07T02:56:46.466Z,0.00
2022-08-07T02:57:46.727Z,0.00
2022-08-07T02:58:47.350Z,0.00
2022-08-07T02:59:45.449Z,0.00
2022-08-07T03:00:47.525Z,0.00
2022-08-07T03:01:47.260Z,0.00
2022-08-07T03:02:54.444Z,0.00
2022-08-07T03:03:50.570Z,0.00
2022-08-07T03:04:45.398Z,0.00
2022-08-07T03:05:45.410Z,0.00
2022-08-07T03:06:45.871Z,0.00
2022-08-07T03:08:07.598Z,0.00
2022-08-07T03:08:46.367Z,0.00
2022-08-07T03:09:48.241Z,0.00
2022-08-07T03:10:47.369Z,0.00
2022-08-07T03:11:52.123Z,0.00
2022-08-07T03:12:46.335Z,4.00
2022-08-07T03:13:49.660Z,4.00
2022-08-07T03:14:48.398Z,0.00
2022-08-07T03:15:56.716Z,0.00
2022-08-07T03:16:46.300Z,4.00
2022-08-07T03:17:53.955Z,0.00
2022-08-07T03:18:46.285Z,0.00
2022-08-07T03:19:45.276Z,4.00
2022-08-07T03:20:46.285Z,0.00
2022-08-07T03:21:50.318Z,4.00
2022-08-07T03:22:50.368Z,4.00
2022-08-07T03:24:19.443Z,4.00
2022-08-07T03:24:46.232Z,8.00
2022-08-07T03:25:45.226Z,4.00
2022-08-07T03:26:51.230Z,4.00
2022-08-07T03:28:09.371Z,4.00
2022-08-07T03:28:46.204Z,8.00
2022-08-07T03:29:49.645Z,8.00
2022-08-07T03:30:46.180Z,12.00
2022-08-07T03:31:46.376Z,12.00
2022-08-07T03:32:48.994Z,16.00
2022-08-07T03:33:46.151Z,20.00
2022-08-07T03:34:47.598Z,20.00
2022-08-07T03:35:50.543Z,20.00
2022-08-07T03:36:45.136Z,24.00
2022-08-07T03:37:46.220Z,28.00
2022-08-07T03:38:46.116Z,32.00
2022-08-07T03:39:59.316Z,36.00
2022-08-07T03:40:46.217Z,40.00
2022-08-07T03:41:47.475Z,44.00
2022-08-07T03:42:45.094Z,48.00
2022-08-07T03:43:57.096Z,52.00
2022-08-07T03:44:47.098Z,60.00
2022-08-07T03:45:47.794Z,68.00
2022-08-07T03:47:10.837Z,76.00
2022-08-07T03:47:47.842Z,84.00
2022-08-07T03:49:01.973Z,92.00
2022-08-07T03:49:51.940Z,96.00
2022-08-07T03:50:55.844Z,108.00
2022-08-07T03:51:47.244Z,120.00
2022-08-07T03:52:45.007Z,128.00
2022-08-07T03:54:05.915Z,136.00
2022-08-07T03:54:54.444Z,152.00
2022-08-07T03:55:58.365Z,160.00
2022-08-07T03:57:07.089Z,176.00
2022-08-07T03:58:33.650Z,188.00
2022-08-07T03:59:09.283Z,204.00
2022-08-07T03:59:46.481Z,224.00
2022-08-07T04:00:46.480Z,240.00
2022-08-07T04:01:45.728Z,260.00
2022-08-07T04:02:47.334Z,280.00
2022-08-07T04:03:53.407Z,300.00
2022-08-07T04:04:45.905Z,324.00
2022-08-07T04:05:45.590Z,344.00
2022-08-07T04:06:44.884Z,364.00
2022-08-07T04:07:45.239Z,392.00
2022-08-07T04:08:44.871Z,416.00
2022-08-07T04:09:50.525Z,440.00
2022-08-07T04:10:54.427Z,464.00
2022-08-07T04:12:25.455Z,488.00
2022-08-07T04:12:46.470Z,516.00
2022-08-07T04:14:09.451Z,540.00
2022-08-07T04:14:47.787Z,560.00
2022-08-07T04:15:45.598Z,584.00
2022-08-07T04:16:58.338Z,612.00
2022-08-07T04:18:58.500Z,640.00
2022-08-07T04:19:01.406Z,668.00
2022-08-07T04:19:52.764Z,696.00
2022-08-07T04:20:54.603Z,728.00
2022-08-07T04:21:59.479Z,756.00
2022-08-07T04:22:53.419Z,784.00
2022-08-07T04:24:04.480Z,816.00
2022-08-07T04:24:45.746Z,844.00
2022-08-07T04:25:44.739Z,884.00
2022-08-07T04:26:44.724Z,920.00
2022-08-07T04:27:46.075Z,992.00
2022-08-07T04:28:45.710Z,1372.00
2022-08-07T04:29:58.538Z,2160.00
2022-08-07T04:30:56.902Z,2900.00
2022-08-07T04:32:03.052Z,2880.00
2022-08-07T04:32:47.872Z,4560.00
2022-08-07T04:33:44.671Z,4920.00
2022-08-07T04:34:44.671Z,1960.00
2022-08-07T04:35:44.649Z,1272.00
2022-08-07T04:36:48.691Z,1264.00
2022-08-07T04:38:03.368Z,1276.00
2022-08-07T04:38:46.562Z,1300.00
2022-08-07T04:39:47.922Z,1320.00
2022-08-07T04:40:51.887Z,1344.00
2022-08-07T04:41:50.464Z,1504.00
2022-08-07T04:42:45.602Z,1508.00
2022-08-07T04:44:12.654Z,1548.00
2022-08-07T04:45:02.723Z,1624.00
2022-08-07T04:46:00.979Z,1656.00
2022-08-07T04:46:59.639Z,2036.00
2022-08-07T04:47:58.887Z,8140.00
2022-08-07T04:48:45.556Z,24320.00
2022-08-07T04:49:47.362Z,31616.00
2022-08-07T04:50:52.810Z,32320.00
2022-08-07T04:51:45.530Z,31552.00
2022-08-07T04:52:51.237Z,31456.00
2022-08-07T04:54:02.016Z,30496.00
2022-08-07T04:54:50.356Z,30272.00
2022-08-07T04:58:10.152Z,27200.00
2022-08-07T04:58:11.027Z,30112.00
2022-08-07T04:58:12.540Z,27360.00
2022-08-07T05:00:12.833Z,16128.00
2022-08-07T05:00:45.516Z,9460.00
2022-08-07T05:01:44.443Z,7512.00
2022-08-07T05:02:44.441Z,6896.00
2022-08-07T05:04:07.064Z,6580.00
2022-08-07T05:04:50.169Z,6472.00
2022-08-07T05:05:52.155Z,6320.00
2022-08-07T05:06:51.351Z,6128.00
2022-08-07T05:07:45.458Z,6080.00
2022-08-07T05:08:59.519Z,6016.00
2022-08-07T05:09:46.970Z,5984.00
2022-08-07T05:10:44.368Z,5820.00
2022-08-07T05:11:57.333Z,5540.00
2022-08-07T05:12:46.314Z,5096.00
2022-08-07T05:14:55.529Z,4576.00
2022-08-07T05:14:55.622Z,4752.00
2022-08-07T05:15:45.323Z,4548.00
2022-08-07T05:16:45.410Z,4640.00
2022-08-07T05:17:52.203Z,4920.00
2022-08-07T05:18:45.295Z,5292.00
2022-08-07T05:19:45.087Z,5680.00
2022-08-07T05:20:44.366Z,5824.00
2022-08-07T05:22:00.093Z,5956.00
2022-08-07T05:22:45.258Z,6120.00
2022-08-07T05:23:44.252Z,6244.00
2022-08-07T05:24:44.255Z,6088.00
2022-08-07T05:26:12.899Z,5800.00
2022-08-07T05:26:46.234Z,5948.00
2022-08-07T05:28:02.554Z,6376.00
2022-08-07T05:28:48.540Z,6740.00
2022-08-07T05:29:50.985Z,6988.00
2022-08-07T05:30:47.145Z,7120.00
2022-08-07T05:31:47.471Z,7780.00
2022-08-07T05:32:45.180Z,8180.00
2022-08-07T05:34:01.090Z,8220.00
2022-08-07T05:34:45.165Z,8088.00
2022-08-07T05:35:44.160Z,7996.00
2022-08-07T05:36:44.154Z,8108.00
2022-08-07T05:37:45.139Z,8008.00
2022-08-07T05:39:00.981Z,7828.00
2022-08-07T05:40:13.877Z,7628.00
2022-08-07T05:40:51.365Z,7116.00
2022-08-07T05:42:01.194Z,6444.00
2022-08-07T05:42:55.958Z,5904.00
2022-08-07T05:44:08.472Z,5640.00
2022-08-07T05:44:46.764Z,5500.00
2022-08-07T05:45:46.499Z,5352.00
2022-08-07T05:46:44.074Z,5240.00
2022-08-07T05:48:01.596Z,5236.00
2022-08-07T05:48:58.354Z,5196.00
2022-08-07T05:49:45.043Z,5112.00
2022-08-07T05:50:44.044Z,5088.00
2022-08-07T05:51:46.213Z,5124.00
2022-08-07T05:52:44.034Z,5200.00
2022-08-07T05:54:12.611Z,5296.00
2022-08-07T05:54:55.706Z,5404.00
2022-08-07T05:56:02.014Z,5556.00
2022-08-07T05:56:44.988Z,5572.00
2022-08-07T05:57:44.873Z,5464.00
2022-08-07T05:58:49.261Z,5276.00
2022-08-07T05:59:55.720Z,5152.00
2022-08-07T06:00:46.308Z,5040.00
2022-08-07T06:01:45.004Z,4924.00
2022-08-07T06:02:43.943Z,4852.00
2022-08-07T06:03:56.627Z,4776.00
2022-08-07T06:04:44.935Z,4752.00
2022-08-07T06:05:48.895Z,4696.00
2022-08-07T06:06:46.244Z,4644.00
2022-08-07T06:08:12.339Z,4612.00
2022-08-07T06:08:45.155Z,4536.00
2022-08-07T06:09:56.594Z,4520.00
2022-08-07T06:10:44.998Z,4480.00
2022-08-07T06:11:43.871Z,4444.00
2022-08-07T06:12:43.857Z,4428.00
2022-08-07T06:14:13.174Z,4400.00
2022-08-07T06:14:49.453Z,4388.00
2022-08-07T06:15:45.316Z,4356.00
2022-08-07T06:16:43.827Z,4328.00
2022-08-07T06:17:53.383Z,4336.00
2022-08-07T06:18:51.569Z,4340.00
2022-08-07T06:19:57.880Z,4312.00
2022-08-07T06:20:50.955Z,4292.00
2022-08-07T06:22:16.971Z,4344.00
2022-08-07T06:22:50.677Z,4304.00
2022-08-07T06:23:46.826Z,4292.00
2022-08-07T06:24:58.159Z,4292.00
2022-08-07T06:25:54.095Z,4328.00
2022-08-07T06:26:45.588Z,4348.00
2022-08-07T06:28:00.904Z,4336.00
2022-08-07T06:28:44.732Z,4348.00
2022-08-07T06:29:43.721Z,4360.00
2022-08-07T06:30:45.977Z,4376.00
2022-08-07T06:31:50.028Z,4428.00
2022-08-07T06:32:43.711Z,4464.00
2022-08-07T06:33:43.694Z,4500.00
2022-08-07T06:34:45.363Z,4524.00
2022-08-07T06:35:45.534Z,4620.00
2022-08-07T06:36:44.670Z,4724.00
2022-08-07T06:37:44.755Z,4828.00
2022-08-07T06:38:59.433Z,4936.00
2022-08-07T06:40:17.434Z,5072.00
2022-08-07T06:40:45.950Z,5172.00
2022-08-07T06:42:02.477Z,5200.00
2022-08-07T06:42:46.635Z,5096.00
2022-08-07T06:43:46.526Z,4892.00
2022-08-07T06:44:44.607Z,4664.00
2022-08-07T06:45:44.836Z,4424.00
2022-08-07T06:46:43.596Z,4224.00
2022-08-07T06:47:44.588Z,4052.00
2022-08-07T06:48:44.804Z,3932.00
2022-08-07T06:49:52.116Z,3832.00
2022-08-07T06:50:47.845Z,3740.00
2022-08-07T06:51:49.943Z,3668.00
2022-08-07T06:52:45.197Z,3608.00
2022-08-07T06:55:28.773Z,3556.00
2022-08-07T06:55:31.492Z,3524.00
2022-08-07T06:55:53.396Z,3492.00
2022-08-07T06:56:48.622Z,3448.00
2022-08-07T06:57:49.930Z,3428.00
2022-08-07T07:00:12.200Z,3388.00
2022-08-07T07:00:12.531Z,3348.00
2022-08-07T07:00:44.474Z,3320.00
2022-08-07T07:01:48.662Z,3308.00
2022-08-07T07:02:54.553Z,3272.00
2022-08-07T07:03:48.157Z,3308.00
2022-08-07T07:04:43.631Z,3228.00
2022-08-07T07:06:05.453Z,3196.00
2022-08-07T07:07:00.474Z,3164.00
2022-08-07T07:07:59.816Z,3164.00
2022-08-07T07:08:46.656Z,3140.00
2022-08-07T07:09:43.409Z,3096.00
2022-08-07T07:10:47.386Z,3084.00
2022-08-07T07:12:08.867Z,3056.00
2022-08-07T07:12:48.935Z,3016.00
2022-08-07T07:13:58.654Z,2996.00
2022-08-07T07:14:44.363Z,2972.00
2022-08-07T07:15:43.426Z,2956.00
2022-08-07T07:16:49.749Z,2924.00
2022-08-07T07:17:45.443Z,2924.00
2022-08-07T07:18:48.190Z,2888.00
2022-08-07T07:19:57.068Z,2872.00
2022-08-07T07:20:44.380Z,2844.00
2022-08-07T07:22:05.039Z,2824.00
2022-08-07T07:24:05.386Z,2800.00
2022-08-07T07:24:08.570Z,2780.00
2022-08-07T07:24:57.061Z,2764.00
2022-08-07T07:26:33.003Z,2740.00
2022-08-07T07:26:51.792Z,2716.00
2022-08-07T07:28:02.212Z,2688.00
2022-08-07T07:29:39.180Z,2656.00
2022-08-07T07:30:08.772Z,2640.00
2022-08-07T07:30:44.240Z,2604.00
2022-08-07T07:31:44.527Z,2588.00
2022-08-07T07:32:43.221Z,2556.00
2022-08-07T07:33:43.222Z,2536.00
2022-08-07T07:34:44.219Z,2520.00
2022-08-07T07:35:44.036Z,2484.00
2022-08-07T07:36:44.188Z,2472.00
2022-08-07T07:37:45.497Z,2464.00
2022-08-07T07:38:46.143Z,2440.00
2022-08-07T07:39:52.262Z,2424.00
2022-08-07T07:40:44.193Z,2404.00
2022-08-07T07:41:50.816Z,2392.00
2022-08-07T07:42:47.088Z,2380.00
2022-08-07T07:43:47.796Z,2364.00
2022-08-07T07:44:45.045Z,2352.00
2022-08-07T07:46:38.022Z,2356.00
2022-08-07T07:46:55.640Z,2332.00
2022-08-07T07:47:52.720Z,2332.00
2022-08-07T07:48:45.526Z,2324.00
2022-08-07T07:50:34.944Z,2320.00
2022-08-07T07:50:44.081Z,2300.00
2022-08-07T07:51:58.270Z,2292.00
2022-08-07T07:52:44.046Z,2288.00
2022-08-07T07:53:52.035Z,2284.00
2022-08-07T07:54:50.839Z,2280.00
2022-08-07T07:55:45.734Z,2268.00
2022-08-07T07:56:44.041Z,2244.00
2022-08-07T07:57:52.223Z,2252.00
2022-08-07T07:58:44.004Z,2236.00
2022-08-07T07:59:52.574Z,2224.00
2022-08-07T08:00:47.803Z,2220.00
2022-08-07T08:02:02.379Z,2228.00
2022-08-07T08:03:05.799Z,2240.00
2022-08-07T08:04:10.990Z,2220.00
2022-08-07T08:04:44.097Z,2224.00
2022-08-07T08:05:54.833Z,2224.00
2022-08-07T08:06:52.189Z,3032.00
2022-08-07T08:07:59.976Z,2212.00
2022-08-07T08:08:44.923Z,2216.00
2022-08-07T08:09:52.343Z,2216.00
2022-08-07T08:10:43.909Z,2212.00
2022-08-07T08:11:59.834Z,2204.00
2022-08-07T08:12:52.252Z,2212.00
2022-08-07T08:13:54.130Z,2228.00
2022-08-07T08:14:43.879Z,2196.00
2022-08-07T08:15:58.046Z,2196.00
2022-08-07T08:16:50.474Z,2192.00
2022-08-07T08:17:57.097Z,2196.00
2022-08-07T08:18:45.154Z,2196.00
2022-08-07T08:20:17.276Z,2200.00
2022-08-07T08:20:43.826Z,2200.00
2022-08-07T08:22:00.554Z,2256.00
2022-08-07T08:22:54.107Z,2200.00
2022-08-07T08:23:43.821Z,2188.00
2022-08-07T08:24:45.305Z,2188.00
2022-08-07T08:25:49.455Z,2188.00
2022-08-07T08:26:43.807Z,2184.00
2022-08-07T08:27:43.975Z,2184.00
2022-08-07T08:28:45.109Z,2188.00
2022-08-07T08:29:54.201Z,2184.00
2022-08-07T08:30:50.888Z,2164.00
2022-08-07T08:31:59.038Z,2164.00
2022-08-07T08:32:48.443Z,2152.00
2022-08-07T08:33:48.972Z,2156.00
2022-08-07T08:34:44.957Z,2168.00
2022-08-07T08:35:47.103Z,2172.00
2022-08-07T08:36:46.298Z,2164.00
2022-08-07T08:38:01.579Z,2172.00
2022-08-07T08:38:44.626Z,2164.00
2022-08-07T08:39:55.084Z,2160.00
2022-08-07T08:40:43.908Z,2152.00
2022-08-07T08:41:58.234Z,2208.00
2022-08-07T08:42:43.660Z,2148.00
2022-08-07T08:43:43.327Z,2152.00
2022-08-07T08:44:44.485Z,2152.00
2022-08-07T08:45:59.261Z,2148.00
2022-08-07T08:46:44.948Z,2144.00
2022-08-07T08:47:52.784Z,2144.00
2022-08-07T08:48:43.613Z,2148.00
2022-08-07T08:49:46.833Z,2140.00
2022-08-07T08:50:43.597Z,2144.00
2022-08-07T08:52:13.119Z,2160.00
2022-08-07T08:52:54.205Z,2140.00
2022-08-07T08:53:43.567Z,2128.00
2022-08-07T08:54:42.572Z,2128.00
2022-08-07T08:55:55.309Z,2132.00
2022-08-07T08:56:47.517Z,2124.00
2022-08-07T08:57:42.540Z,2120.00
2022-08-07T08:58:42.531Z,2116.00
2022-08-07T08:59:48.274Z,2108.00
2022-08-07T09:00:48.622Z,2088.00
2022-08-07T09:01:46.609Z,2092.00
2022-08-07T09:02:42.634Z,2088.00
2022-08-07T09:03:48.094Z,2084.00
2022-08-07T09:04:43.490Z,2268.00
2022-08-07T09:05:42.488Z,2092.00
2022-08-07T09:06:42.884Z,2072.00
2022-08-07T09:07:46.272Z,2076.00
2022-08-07T09:08:43.455Z,2084.00
2022-08-07T09:09:42.449Z,2048.00
2022-08-07T09:10:44.329Z,2052.00
2022-08-07T09:11:51.238Z,2048.00
2022-08-07T09:12:53.563Z,2044.00
2022-08-07T09:13:42.419Z,2044.00
2022-08-07T09:14:42.414Z,2040.00
2022-08-07T09:16:22.033Z,2028.00
2022-08-07T09:16:43.409Z,2000.00
2022-08-07T09:17:58.941Z,1964.00
2022-08-07T09:18:47.374Z,1928.00
2022-08-07T09:19:52.214Z,1896.00
2022-08-07T09:20:43.372Z,1868.00
2022-08-07T09:22:22.398Z,1848.00
2022-08-07T09:24:32.306Z,1848.00
2022-08-07T09:24:33.845Z,1844.00
2022-08-07T09:24:59.428Z,1848.00
2022-08-07T09:25:43.340Z,1848.00
2022-08-07T09:26:47.807Z,1848.00
2022-08-07T09:28:00.436Z,1844.00
2022-08-07T09:30:06.239Z,1840.00
2022-08-07T09:30:06.370Z,1796.00
2022-08-07T09:30:46.166Z,1832.00
2022-08-07T09:31:49.139Z,1820.00
2022-08-07T09:32:43.290Z,1828.00
2022-08-07T09:33:56.817Z,1828.00
2022-08-07T09:34:43.310Z,1820.00
2022-08-07T09:36:03.282Z,1820.00
2022-08-07T09:36:46.818Z,1820.00
2022-08-07T09:37:48.194Z,1820.00
2022-08-07T09:38:43.223Z,1828.00
2022-08-07T09:39:54.794Z,1816.00
2022-08-07T09:40:43.205Z,1816.00
2022-08-07T09:41:43.211Z,1812.00
2022-08-07T09:42:44.090Z,1812.00
2022-08-07T09:44:05.725Z,1808.00
2022-08-07T09:44:52.198Z,1804.00
2022-08-07T09:47:25.813Z,1812.00
2022-08-07T09:47:51.623Z,1812.00
2022-08-07T09:47:59.170Z,1816.00
2022-08-07T09:49:02.567Z,1828.00
2022-08-07T09:49:59.553Z,1812.00
2022-08-07T09:50:43.132Z,1816.00
2022-08-07T09:52:16.305Z,1812.00
2022-08-07T09:52:43.113Z,1804.00
2022-08-07T09:53:50.108Z,1808.00
2022-08-07T09:54:43.114Z,1804.00
2022-08-07T09:56:03.221Z,1804.00
2022-08-07T09:56:43.084Z,1808.00
2022-08-07T09:57:46.622Z,1812.00
2022-08-07T09:58:42.421Z,1840.00
2022-08-07T09:59:46.105Z,1808.00
2022-08-07T10:00:42.059Z,1812.00
2022-08-07T10:01:51.275Z,1812.00
2022-08-07T10:02:53.666Z,1816.00
2022-08-07T10:04:06.535Z,1808.00
2022-08-07T10:04:46.063Z,1796.00
2022-08-07T10:06:00.748Z,1796.00
2022-08-07T10:06:49.107Z,1800.00
2022-08-07T10:07:53.755Z,1800.00
2022-08-07T10:08:42.994Z,1804.00
2022-08-07T10:09:59.308Z,1808.00
2022-08-07T10:11:16.297Z,1812.00
2022-08-07T10:12:01.860Z,1812.00
2022-08-07T10:12:52.785Z,1812.00
2022-08-07T10:14:00.243Z,1796.00
2022-08-07T10:14:43.675Z,1796.00
2022-08-07T10:15:44.675Z,1804.00
2022-08-07T10:16:41.927Z,1792.00
2022-08-07T10:18:00.975Z,1800.00
2022-08-07T10:18:42.917Z,1808.00
2022-08-07T10:19:41.993Z,1804.00
2022-08-07T10:20:41.892Z,1808.00
2022-08-07T10:22:12.418Z,1800.00
2022-08-07T10:22:43.226Z,1812.00
2022-08-07T10:24:05.920Z,1804.00
2022-08-07T10:24:42.871Z,1808.00
2022-08-07T10:25:43.077Z,1824.00
2022-08-07T10:26:41.856Z,1812.00
2022-08-07T10:27:46.228Z,1812.00
2022-08-07T10:28:43.437Z,1808.00
2022-08-07T10:29:45.905Z,1792.00
2022-08-07T10:30:43.827Z,1800.00
2022-08-07T10:31:42.994Z,1800.00
2022-08-07T10:32:52.849Z,1804.00
2022-08-07T10:34:05.914Z,1812.00
2022-08-07T10:34:45.259Z,1800.00
2022-08-07T10:35:56.601Z,1800.00
2022-08-07T10:36:42.809Z,1788.00
2022-08-07T10:38:00.197Z,1768.00
2022-08-07T10:38:48.845Z,1792.00
2022-08-07T10:40:03.350Z,1796.00
2022-08-07T10:40:42.753Z,1792.00
2022-08-07T10:41:51.261Z,1792.00
2022-08-07T10:42:42.727Z,1788.00
2022-08-07T10:43:41.733Z,1788.00
2022-08-07T10:44:45.373Z,1796.00
2022-08-07T10:45:44.420Z,1796.00
2022-08-07T10:46:41.707Z,1796.00
2022-08-07T10:47:51.432Z,1796.00
2022-08-07T10:48:44.163Z,1796.00
2022-08-07T10:49:41.682Z,1796.00
2022-08-07T10:50:44.900Z,1780.00
2022-08-07T10:52:01.909Z,1788.00
2022-08-07T10:52:42.785Z,1788.00
2022-08-07T10:53:44.693Z,1780.00
2022-08-07T10:54:42.200Z,1776.00
2022-08-07T10:55:42.638Z,1784.00
2022-08-07T10:56:41.912Z,1784.00
2022-08-07T10:57:41.631Z,1788.00
2022-08-07T10:58:41.654Z,1780.00
2022-08-07T10:59:45.381Z,1768.00
2022-08-07T11:00:43.300Z,1764.00
2022-08-07T11:01:51.999Z,1764.00
2022-08-07T11:02:42.620Z,1764.00
2022-08-07T11:03:52.740Z,1768.00
2022-08-07T11:04:42.566Z,1764.00
2022-08-07T11:05:50.982Z,1776.00
2022-08-07T11:06:44.529Z,1768.00
2022-08-07T11:08:00.297Z,1768.00
2022-08-07T11:08:42.539Z,1768.00
2022-08-07T11:10:09.318Z,1752.00
2022-08-07T11:10:42.522Z,1760.00
2022-08-07T11:11:42.773Z,1760.00
2022-08-07T11:12:43.172Z,1756.00
2022-08-07T11:14:44.339Z,1748.00
2022-08-07T11:14:59.766Z,1748.00
2022-08-07T11:15:42.504Z,1748.00
2022-08-07T11:16:42.479Z,1744.00
2022-08-07T11:17:44.324Z,1740.00
2022-08-07T11:18:41.466Z,1736.00
2022-08-07T11:19:41.489Z,1712.00
2022-08-07T11:20:41.451Z,1736.00
2022-08-07T11:21:43.094Z,1720.00
2022-08-07T11:22:45.651Z,1736.00
2022-08-07T11:23:41.427Z,1716.00
2022-08-07T11:24:45.512Z,1728.00
2022-08-07T11:25:48.265Z,1728.00
2022-08-07T11:26:48.170Z,1708.00
2022-08-07T11:28:03.036Z,1704.00
2022-08-07T11:28:42.469Z,1700.00
2022-08-07T11:29:47.254Z,1692.00
2022-08-07T11:30:42.505Z,1700.00
2022-08-07T11:31:41.363Z,1696.00
2022-08-07T11:32:41.355Z,1704.00
2022-08-07T11:33:54.385Z,1696.00
2022-08-07T11:34:42.544Z,1708.00
2022-08-07T11:35:59.855Z,1708.00
2022-08-07T11:36:42.340Z,1708.00
2022-08-07T11:38:10.278Z,1720.00
2022-08-07T11:38:42.307Z,1704.00
2022-08-07T11:40:00.138Z,1700.00
2022-08-07T11:40:42.291Z,1680.00
2022-08-07T11:42:01.922Z,1676.00
2022-08-07T11:42:42.271Z,1676.00
2022-08-07T11:44:11.346Z,1672.00
2022-08-07T11:44:52.296Z,1668.00
2022-08-07T11:45:53.450Z,1660.00
2022-08-07T11:46:42.241Z,1656.00
2022-08-07T11:47:58.912Z,1648.00
2022-08-07T11:48:53.824Z,1656.00
2022-08-07T11:50:11.313Z,1660.00
2022-08-07T11:50:44.310Z,1656.00
2022-08-07T11:51:45.054Z,1656.00
2022-08-07T11:52:41.207Z,1644.00
2022-08-07T11:53:43.232Z,1644.00
2022-08-07T11:54:42.190Z,1640.00
2022-08-07T11:56:15.705Z,1636.00
2022-08-07T11:56:42.169Z,1636.00
2022-08-07T11:58:00.690Z,1636.00
2022-08-07T11:58:42.148Z,1632.00
2022-08-07T12:00:12.127Z,1620.00
2022-08-07T12:00:42.137Z,1632.00
2022-08-07T12:02:00.060Z,1620.00
2022-08-07T12:02:42.148Z,1612.00
2022-08-07T12:03:45.319Z,1612.00
2022-08-07T12:04:41.105Z,1608.00
2022-08-07T12:05:49.110Z,1600.00
2022-08-07T12:06:50.837Z,1608.00
2022-08-07T12:07:42.233Z,1600.00
2022-08-07T12:08:42.533Z,1604.00
2022-08-07T12:09:41.103Z,1600.00
2022-08-07T12:10:41.949Z,1604.00
2022-08-07T12:11:43.385Z,1592.00
2022-08-07T12:12:42.075Z,1592.00
2022-08-07T12:13:44.919Z,1580.00
2022-08-07T12:14:43.019Z,1576.00
2022-08-07T12:16:05.795Z,1576.00
2022-08-07T12:16:42.028Z,1572.00
2022-08-07T12:17:55.895Z,1572.00
2022-08-07T12:18:45.583Z,1560.00
2022-08-07T12:20:05.390Z,1560.00
2022-08-07T12:20:41.987Z,1560.00
2022-08-07T12:22:36.053Z,1552.00
2022-08-07T12:22:47.288Z,1552.00
2022-08-07T12:24:06.651Z,1552.00
2022-08-07T12:24:41.947Z,1548.00
2022-08-07T12:26:03.310Z,1540.00
2022-08-07T12:26:46.611Z,1544.00
2022-08-07T12:28:08.924Z,1540.00
2022-08-07T12:28:44.949Z,1536.00